Columbia Metropolitan Airport Columbia US
ICAO: KCAE
IATA: CAE
Category: Large
Scheduled Services: Yes

Elevation: 236 ft
TransAlt. 18000 ft.

Airport Communications:
APP/DEP:124.15
ATIS:120.15
CLNC DEL:119.75
GND:121.9
ANDERSON RDO:122.65
TWR:119.5
UNICOM:122.95

KCAE Zoom In..

Runways:

(A) RW 05 length 8001 ft width 150 ft
ILS 108.95 / hdg 50

(B) RW 11 length 8601 ft width 150 ft
ILS 110.30 / hdg 110

(C) RW 23 length 8001 ft width 150 ft
---- / hdg 230

(D) RW 29 length 8601 ft width 150 ft
ILS 108.30 / hdg 290

Location; KCAE
Day. 07 / Time. 17.56 Zulu
* Altimeter: 29.97
* Temperature: 28° c. 82.4°f.
* Wind from: 250° Speed 11 kn.
Dewpoint: 12° c.
Visibility: 10 Statute Miles.
Clouds: Few 6000 ft.
Clouds: Few 8000 ft.
Clouds: Scattered 12000 ft.
Clouds: Broken 22000 ft.

KCAE 071756Z 25011KT 10SM FEW060 FEW080 SCT120 BKN220 28/12 A2997 RMK AO2 SLP145 T02830122 10294 20172 58021


Wind From 250°
Speed 11 kn.

 
 
jpsmedia worldairports.se 2020   terms of use